createdAt,value
2017-01-29T00:00:11.552Z,16.80
2017-01-29T00:01:11.735Z,16.70
2017-01-29T00:02:12.225Z,16.70
2017-01-29T00:03:11.899Z,16.80
2017-01-29T00:04:12.667Z,16.70
2017-01-29T00:05:11.776Z,16.70
2017-01-29T00:06:12.322Z,16.70
2017-01-29T00:07:12.329Z,16.70
2017-01-29T00:08:11.314Z,16.70
2017-01-29T00:09:09.989Z,16.70
2017-01-29T00:10:09.778Z,16.70
2017-01-29T00:11:12.151Z,16.70
2017-01-29T00:12:13.589Z,16.70
2017-01-29T00:13:11.565Z,16.70
2017-01-29T00:14:15.233Z,16.70
2017-01-29T00:15:11.325Z,16.70
2017-01-29T00:16:12.900Z,16.70
2017-01-29T00:17:11.628Z,16.70
2017-01-29T00:18:11.694Z,16.70
2017-01-29T00:19:11.869Z,16.70
2017-01-29T00:20:09.796Z,16.70
2017-01-29T00:21:12.798Z,16.70
2017-01-29T00:22:12.547Z,16.70
2017-01-29T00:23:12.158Z,16.70
2017-01-29T00:24:13.949Z,16.70
2017-01-29T00:25:12.847Z,16.70
2017-01-29T00:26:12.142Z,16.70
2017-01-29T00:27:12.797Z,16.70
2017-01-29T00:28:11.890Z,16.70
2017-01-29T00:29:13.241Z,16.70
2017-01-29T00:30:11.494Z,16.70
2017-01-29T00:31:12.076Z,16.70
2017-01-29T00:32:11.726Z,16.70
2017-01-29T00:33:11.687Z,16.70
2017-01-29T00:34:12.254Z,16.70
2017-01-29T00:35:11.937Z,16.70
2017-01-29T00:36:12.748Z,16.70
2017-01-29T00:37:10.254Z,16.70
2017-01-29T00:38:12.305Z,16.70
2017-01-29T00:39:11.388Z,16.70
2017-01-29T00:40:11.959Z,16.70
2017-01-29T00:41:12.649Z,16.70
2017-01-29T00:42:12.856Z,16.70
2017-01-29T00:43:11.710Z,16.70
2017-01-29T00:44:11.605Z,16.70
2017-01-29T00:45:11.958Z,16.70
2017-01-29T00:46:12.056Z,16.70
2017-01-29T00:47:11.142Z,16.70
2017-01-29T00:48:12.034Z,16.70
2017-01-29T00:49:12.653Z,16.70
2017-01-29T00:50:12.228Z,16.70
2017-01-29T00:51:11.914Z,16.70
2017-01-29T00:52:09.948Z,16.70
2017-01-29T00:53:11.662Z,16.70
2017-01-29T00:54:11.895Z,16.70
2017-01-29T00:55:12.383Z,16.70
2017-01-29T00:56:12.113Z,16.70
2017-01-29T00:57:11.178Z,16.70
2017-01-29T00:58:11.865Z,16.70
2017-01-29T00:59:13.015Z,16.70
2017-01-29T01:00:13.289Z,16.70
2017-01-29T01:01:11.420Z,16.70
2017-01-29T01:02:13.581Z,16.70
2017-01-29T01:03:11.638Z,16.70
2017-01-29T01:04:12.836Z,16.70
2017-01-29T01:05:11.982Z,16.70
2017-01-29T01:06:12.084Z,16.70
2017-01-29T01:07:11.742Z,16.70
2017-01-29T01:08:12.384Z,16.70
2017-01-29T01:09:12.614Z,16.70
2017-01-29T01:10:11.789Z,16.70
2017-01-29T01:11:12.191Z,16.70
2017-01-29T01:12:11.263Z,16.70
2017-01-29T01:13:11.498Z,16.70
2017-01-29T01:14:12.372Z,16.70
2017-01-29T01:15:12.007Z,16.80
2017-01-29T01:16:13.971Z,16.80
2017-01-29T01:17:12.540Z,16.80
2017-01-29T01:18:12.298Z,16.80
2017-01-29T01:19:11.651Z,16.80
2017-01-29T01:20:11.842Z,16.80
2017-01-29T01:21:11.907Z,16.70
2017-01-29T01:22:11.983Z,16.70
2017-01-29T01:23:12.736Z,16.80
2017-01-29T01:24:10.576Z,16.80
2017-01-29T01:25:11.113Z,16.80
2017-01-29T01:26:11.942Z,16.80
2017-01-29T01:27:09.743Z,16.80
2017-01-29T01:28:12.094Z,16.70
2017-01-29T01:29:11.988Z,16.80
2017-01-29T01:30:12.758Z,16.80
2017-01-29T01:31:12.232Z,16.80
2017-01-29T01:32:12.045Z,16.80
2017-01-29T01:33:12.499Z,16.70
2017-01-29T01:34:11.739Z,16.80
2017-01-29T01:35:10.484Z,16.80
2017-01-29T01:36:12.475Z,16.80
2017-01-29T01:37:12.113Z,16.80
2017-01-29T01:38:11.286Z,16.80
2017-01-29T01:39:11.348Z,16.80
2017-01-29T01:40:12.112Z,16.80
2017-01-29T01:41:11.861Z,16.80
2017-01-29T01:42:12.661Z,16.80
2017-01-29T01:43:13.718Z,16.80
2017-01-29T01:44:12.507Z,16.80
2017-01-29T01:45:11.581Z,16.80
2017-01-29T01:46:10.163Z,16.80
2017-01-29T01:47:11.992Z,16.80
2017-01-29T01:48:12.717Z,16.80
2017-01-29T01:49:12.467Z,16.80
2017-01-29T01:50:12.203Z,16.80
2017-01-29T01:51:12.923Z,16.80
2017-01-29T01:52:12.733Z,16.80
2017-01-29T01:53:13.722Z,16.80
2017-01-29T01:54:13.311Z,16.80
2017-01-29T01:55:12.410Z,16.80
2017-01-29T01:56:12.304Z,16.80
2017-01-29T01:57:13.042Z,16.80
2017-01-29T01:58:11.088Z,16.80
2017-01-29T01:59:12.426Z,16.80
2017-01-29T02:00:11.563Z,16.80
2017-01-29T02:01:09.340Z,16.80
2017-01-29T02:02:12.569Z,16.80
2017-01-29T02:03:11.800Z,16.80
2017-01-29T02:04:12.572Z,16.80
2017-01-29T02:05:09.118Z,16.80
2017-01-29T02:06:11.824Z,16.80
2017-01-29T02:07:12.788Z,16.80
2017-01-29T02:08:12.714Z,16.80
2017-01-29T02:09:15.674Z,16.80
2017-01-29T02:10:11.112Z,16.80
2017-01-29T02:11:11.130Z,16.80
2017-01-29T02:12:12.125Z,16.80
2017-01-29T02:13:11.948Z,16.80
2017-01-29T02:14:14.937Z,16.80
2017-01-29T02:15:12.590Z,16.80
2017-01-29T02:16:13.394Z,16.80
2017-01-29T02:17:12.203Z,16.80
2017-01-29T02:18:12.108Z,16.80
2017-01-29T02:19:11.594Z,16.80
2017-01-29T02:20:11.720Z,16.80
2017-01-29T02:21:12.333Z,16.80
2017-01-29T02:22:09.761Z,16.80
2017-01-29T02:23:12.247Z,16.80
2017-01-29T02:24:12.035Z,16.80
2017-01-29T02:25:12.901Z,16.80
2017-01-29T02:26:09.909Z,16.80
2017-01-29T02:27:11.762Z,16.80
2017-01-29T02:28:13.076Z,16.80
2017-01-29T02:29:11.973Z,16.80
2017-01-29T02:30:12.600Z,16.80
2017-01-29T02:31:12.729Z,16.80
2017-01-29T02:32:09.633Z,16.80
2017-01-29T02:33:09.641Z,16.80
2017-01-29T02:34:12.373Z,16.80
2017-01-29T02:35:12.159Z,16.80
2017-01-29T02:36:09.354Z,16.80
2017-01-29T02:37:11.627Z,16.80
2017-01-29T02:38:12.531Z,16.80
2017-01-29T02:39:11.624Z,16.80
2017-01-29T02:40:12.561Z,16.80
2017-01-29T02:41:11.639Z,16.80
2017-01-29T02:42:11.673Z,16.80
2017-01-29T02:43:12.172Z,16.80
2017-01-29T02:44:12.195Z,16.80
2017-01-29T02:45:11.358Z,16.80
2017-01-29T02:46:11.583Z,16.80
2017-01-29T02:47:12.285Z,16.80
2017-01-29T02:48:14.041Z,16.80
2017-01-29T02:49:11.962Z,16.80
2017-01-29T02:50:12.377Z,16.80
2017-01-29T02:51:12.683Z,16.80
2017-01-29T02:52:13.035Z,16.80
2017-01-29T02:53:12.887Z,16.80
2017-01-29T02:54:12.496Z,16.80
2017-01-29T02:55:12.304Z,16.80
2017-01-29T02:56:11.899Z,16.80
2017-01-29T02:57:12.484Z,16.80
2017-01-29T02:58:12.006Z,16.80
2017-01-29T02:59:11.562Z,16.80
2017-01-29T03:00:12.169Z,16.80
2017-01-29T03:01:11.795Z,16.80
2017-01-29T03:02:12.456Z,16.80
2017-01-29T03:03:12.049Z,16.80
2017-01-29T03:04:11.839Z,16.80
2017-01-29T03:05:11.801Z,16.80
2017-01-29T03:06:12.456Z,16.80
2017-01-29T03:07:12.556Z,16.80
2017-01-29T03:08:11.689Z,16.80
2017-01-29T03:09:11.877Z,16.80
2017-01-29T03:10:12.389Z,16.80
2017-01-29T03:11:11.480Z,16.80
2017-01-29T03:12:11.709Z,16.80
2017-01-29T03:13:12.671Z,16.80
2017-01-29T03:14:12.763Z,16.80
2017-01-29T03:15:11.708Z,16.80
2017-01-29T03:16:11.569Z,16.80
2017-01-29T03:17:12.540Z,16.80
2017-01-29T03:18:09.503Z,16.80
2017-01-29T03:19:11.695Z,16.80
2017-01-29T03:20:11.860Z,16.80
2017-01-29T03:21:12.595Z,16.80
2017-01-29T03:22:10.424Z,16.80
2017-01-29T03:23:12.877Z,16.80
2017-01-29T03:24:12.519Z,16.80
2017-01-29T03:25:12.008Z,16.80
2017-01-29T03:26:10.774Z,16.80
2017-01-29T03:27:12.912Z,16.80
2017-01-29T03:28:12.019Z,16.80
2017-01-29T03:29:12.138Z,16.80
2017-01-29T03:30:11.968Z,16.80
2017-01-29T03:31:13.882Z,16.80
2017-01-29T03:32:12.666Z,16.80
2017-01-29T03:33:11.708Z,16.80
2017-01-29T03:34:12.373Z,16.80
2017-01-29T03:35:12.617Z,16.80
2017-01-29T03:36:12.026Z,16.80
2017-01-29T03:37:11.233Z,16.80
2017-01-29T03:38:08.645Z,16.80
2017-01-29T03:39:11.910Z,16.80
2017-01-29T03:40:13.057Z,16.80
2017-01-29T03:41:11.032Z,16.80
2017-01-29T03:42:09.918Z,16.80
2017-01-29T03:43:11.707Z,16.80
2017-01-29T03:44:11.852Z,16.80
2017-01-29T03:45:10.493Z,16.80
2017-01-29T03:46:10.997Z,16.80
2017-01-29T03:47:12.639Z,16.80
2017-01-29T03:48:11.751Z,16.80
2017-01-29T03:49:11.778Z,16.80
2017-01-29T03:50:11.788Z,16.80
2017-01-29T03:51:13.106Z,16.80
2017-01-29T03:52:11.791Z,16.90
2017-01-29T03:53:11.723Z,16.80
2017-01-29T03:54:11.757Z,16.80
2017-01-29T03:55:12.432Z,16.80
2017-01-29T03:56:12.562Z,16.80
2017-01-29T03:57:12.404Z,16.80
2017-01-29T03:58:14.479Z,16.80
2017-01-29T03:59:12.485Z,16.80
2017-01-29T04:00:12.059Z,16.80
2017-01-29T04:01:12.166Z,16.80
2017-01-29T04:02:12.981Z,16.80
2017-01-29T04:03:12.079Z,16.80
2017-01-29T04:04:11.832Z,16.80
2017-01-29T04:05:12.571Z,16.80
2017-01-29T04:06:12.287Z,16.80
2017-01-29T04:07:12.618Z,16.80
2017-01-29T04:08:12.005Z,16.80
2017-01-29T04:09:11.565Z,16.80
2017-01-29T04:10:13.125Z,16.80
2017-01-29T04:11:12.042Z,16.80
2017-01-29T04:12:11.302Z,16.80
2017-01-29T04:13:12.992Z,16.90
2017-01-29T04:14:11.782Z,16.80
2017-01-29T04:15:12.437Z,16.90
2017-01-29T04:16:12.768Z,16.90
2017-01-29T04:17:12.821Z,16.90
2017-01-29T04:18:12.424Z,16.80
2017-01-29T04:19:12.535Z,16.80
2017-01-29T04:20:11.896Z,16.80
2017-01-29T04:21:11.840Z,16.80
2017-01-29T04:22:14.537Z,16.80
2017-01-29T04:23:11.832Z,16.80
2017-01-29T04:24:12.591Z,16.80
2017-01-29T04:25:12.442Z,16.80
2017-01-29T04:26:11.988Z,16.90
2017-01-29T04:27:13.302Z,16.80
2017-01-29T04:28:12.095Z,16.80
2017-01-29T04:29:11.075Z,16.80
2017-01-29T04:30:11.175Z,16.80
2017-01-29T04:31:11.506Z,16.80
2017-01-29T04:32:13.108Z,16.80
2017-01-29T04:33:11.287Z,16.80
2017-01-29T04:34:11.447Z,16.80
2017-01-29T04:35:12.142Z,16.80
2017-01-29T04:36:11.172Z,16.80
2017-01-29T04:37:11.811Z,16.80
2017-01-29T04:38:11.987Z,16.80
2017-01-29T04:39:13.841Z,16.80
2017-01-29T04:40:12.605Z,16.80
2017-01-29T04:41:09.304Z,16.90
2017-01-29T04:42:12.469Z,16.80
2017-01-29T04:43:12.059Z,16.80
2017-01-29T04:44:11.238Z,16.80
2017-01-29T04:45:12.018Z,16.80
2017-01-29T04:46:12.176Z,16.80
2017-01-29T04:47:12.893Z,16.80
2017-01-29T04:48:11.980Z,16.80
2017-01-29T04:49:10.767Z,16.80
2017-01-29T04:50:11.354Z,16.80
2017-01-29T04:51:12.734Z,16.90
2017-01-29T04:52:11.684Z,16.80
2017-01-29T04:53:11.707Z,16.80
2017-01-29T04:54:11.706Z,16.80
2017-01-29T04:55:12.583Z,16.80
2017-01-29T04:56:11.304Z,16.80
2017-01-29T04:57:12.294Z,16.90
2017-01-29T04:58:11.887Z,16.80
2017-01-29T04:59:13.820Z,16.90
2017-01-29T05:00:12.481Z,16.90
2017-01-29T05:01:12.440Z,16.90
2017-01-29T05:02:11.863Z,16.90
2017-01-29T05:03:12.959Z,16.90
2017-01-29T05:04:11.721Z,16.90
2017-01-29T05:05:12.856Z,16.90
2017-01-29T05:06:12.115Z,16.90
2017-01-29T05:07:12.303Z,16.90
2017-01-29T05:08:13.527Z,16.80
2017-01-29T05:09:12.119Z,16.90
2017-01-29T05:10:12.633Z,16.90
2017-01-29T05:11:09.649Z,16.90
2017-01-29T05:12:12.047Z,16.90
2017-01-29T05:13:11.917Z,16.90
2017-01-29T05:14:12.051Z,16.80
2017-01-29T05:15:11.771Z,16.90
2017-01-29T05:16:12.429Z,16.90
2017-01-29T05:17:12.309Z,16.90
2017-01-29T05:18:11.508Z,16.90
2017-01-29T05:19:10.413Z,16.90
2017-01-29T05:20:12.418Z,16.90
2017-01-29T05:21:12.136Z,16.90
2017-01-29T05:22:11.849Z,16.90
2017-01-29T05:23:12.749Z,16.90
2017-01-29T05:24:10.192Z,16.90
2017-01-29T05:25:13.968Z,16.90
2017-01-29T05:26:15.169Z,16.90
2017-01-29T05:27:15.502Z,16.90
2017-01-29T05:28:11.890Z,16.90
2017-01-29T05:29:12.486Z,16.90
2017-01-29T05:30:12.427Z,16.90
2017-01-29T05:31:11.506Z,16.90
2017-01-29T05:32:11.446Z,16.90
2017-01-29T05:33:11.541Z,16.90
2017-01-29T05:34:11.689Z,16.90
2017-01-29T05:35:11.828Z,16.90
2017-01-29T05:36:12.397Z,16.90
2017-01-29T05:37:09.368Z,16.90
2017-01-29T05:38:10.568Z,16.90
2017-01-29T05:39:12.533Z,16.90
2017-01-29T05:40:11.634Z,16.90
2017-01-29T05:41:09.134Z,16.90
2017-01-29T05:42:11.830Z,16.90
2017-01-29T05:43:12.573Z,16.90
2017-01-29T05:44:09.885Z,16.90
2017-01-29T05:45:12.147Z,16.90
2017-01-29T05:46:11.288Z,16.90
2017-01-29T05:47:09.747Z,16.90
2017-01-29T05:48:14.262Z,16.90
2017-01-29T05:49:11.469Z,16.90
2017-01-29T05:50:11.601Z,16.90
2017-01-29T05:51:11.845Z,16.90
2017-01-29T05:52:11.951Z,16.90
2017-01-29T05:53:12.023Z,16.90
2017-01-29T05:54:11.478Z,16.90
2017-01-29T05:55:12.218Z,16.90
2017-01-29T05:56:11.772Z,16.90
2017-01-29T05:57:12.342Z,16.90
2017-01-29T05:58:12.861Z,16.90
2017-01-29T05:59:12.001Z,16.90
2017-01-29T06:00:11.102Z,16.90
2017-01-29T06:01:11.672Z,16.90
2017-01-29T06:02:11.654Z,16.90
2017-01-29T06:03:13.249Z,16.90
2017-01-29T06:04:09.679Z,16.90
2017-01-29T06:05:11.315Z,16.90
2017-01-29T06:06:11.929Z,16.90
2017-01-29T06:07:12.682Z,16.90
2017-01-29T06:08:12.181Z,16.90
2017-01-29T06:09:12.067Z,16.90
2017-01-29T06:10:12.302Z,16.90
2017-01-29T06:11:12.984Z,16.90
2017-01-29T06:12:15.785Z,16.90
2017-01-29T06:13:12.946Z,16.90
2017-01-29T06:14:12.733Z,17.00
2017-01-29T06:15:10.422Z,17.00
2017-01-29T06:16:12.298Z,17.00
2017-01-29T06:17:11.962Z,17.00
2017-01-29T06:18:11.540Z,17.00
2017-01-29T06:19:11.657Z,17.00
2017-01-29T06:20:11.638Z,17.00
2017-01-29T06:21:11.780Z,17.00
2017-01-29T06:22:11.850Z,17.00
2017-01-29T06:23:11.736Z,17.00
2017-01-29T06:24:11.787Z,17.00
2017-01-29T06:25:11.967Z,17.00
2017-01-29T06:26:13.632Z,17.00
2017-01-29T06:27:12.205Z,17.00
2017-01-29T06:28:11.155Z,17.00
2017-01-29T06:29:11.653Z,17.00
2017-01-29T06:30:12.408Z,17.00
2017-01-29T06:31:11.510Z,17.00
2017-01-29T06:32:13.299Z,17.00
2017-01-29T06:33:12.173Z,17.00
2017-01-29T06:34:11.199Z,17.00
2017-01-29T06:35:11.892Z,17.00
2017-01-29T06:36:11.906Z,17.00
2017-01-29T06:37:13.610Z,17.00
2017-01-29T06:38:11.738Z,17.00
2017-01-29T06:39:09.185Z,17.00
2017-01-29T06:40:11.607Z,17.00
2017-01-29T06:41:11.708Z,17.00
2017-01-29T06:42:12.377Z,17.00
2017-01-29T06:43:11.536Z,17.00
2017-01-29T06:44:11.963Z,17.00
2017-01-29T06:45:11.970Z,17.00
2017-01-29T06:46:11.158Z,17.00
2017-01-29T06:47:12.200Z,17.00
2017-01-29T06:48:12.146Z,17.00
2017-01-29T06:49:12.176Z,17.00
2017-01-29T06:50:11.810Z,17.00
2017-01-29T06:51:11.768Z,16.90
2017-01-29T06:52:12.564Z,16.90
2017-01-29T06:53:12.206Z,16.90
2017-01-29T06:54:11.657Z,17.00
2017-01-29T06:55:12.195Z,17.00
2017-01-29T06:56:11.366Z,17.00
2017-01-29T06:57:11.484Z,17.00
2017-01-29T06:58:12.942Z,17.00
2017-01-29T06:59:12.377Z,17.00
2017-01-29T07:00:13.264Z,17.00
2017-01-29T07:01:11.872Z,17.00
2017-01-29T07:02:11.900Z,17.00
2017-01-29T07:03:11.993Z,17.00
2017-01-29T07:04:12.068Z,17.00
2017-01-29T07:05:11.616Z,17.00
2017-01-29T07:06:10.261Z,17.00
2017-01-29T07:07:11.926Z,17.00
2017-01-29T07:08:12.400Z,17.00
2017-01-29T07:09:13.111Z,17.00
2017-01-29T07:10:12.772Z,17.00
2017-01-29T07:11:11.769Z,17.00
2017-01-29T07:12:10.133Z,17.00
2017-01-29T07:13:11.717Z,17.00
2017-01-29T07:14:13.078Z,17.00
2017-01-29T07:15:11.987Z,17.00
2017-01-29T07:16:13.639Z,17.00
2017-01-29T07:17:12.251Z,17.00
2017-01-29T07:18:12.650Z,17.00
2017-01-29T07:19:12.098Z,17.00
2017-01-29T07:20:11.174Z,17.00
2017-01-29T07:21:09.177Z,17.00
2017-01-29T07:22:12.382Z,17.00
2017-01-29T07:23:10.059Z,17.00
2017-01-29T07:24:11.690Z,17.00
2017-01-29T07:25:11.776Z,17.00
2017-01-29T07:26:12.439Z,17.00
2017-01-29T07:27:12.018Z,17.00
2017-01-29T07:28:11.331Z,17.00
2017-01-29T07:29:11.388Z,17.00
2017-01-29T07:30:12.141Z,17.00
2017-01-29T07:31:11.107Z,17.00
2017-01-29T07:32:09.883Z,17.10
2017-01-29T07:33:11.259Z,17.00
2017-01-29T07:34:11.791Z,17.10
2017-01-29T07:35:11.957Z,17.10
2017-01-29T07:36:12.196Z,17.10
2017-01-29T07:37:10.021Z,17.10
2017-01-29T07:38:12.253Z,17.10
2017-01-29T07:39:11.260Z,17.10
2017-01-29T07:40:10.138Z,17.10
2017-01-29T07:41:11.535Z,17.10
2017-01-29T07:42:12.217Z,17.10
2017-01-29T07:43:11.625Z,17.10
2017-01-29T07:44:10.245Z,17.10
2017-01-29T07:45:09.967Z,17.10
2017-01-29T07:46:13.071Z,17.10
2017-01-29T07:47:11.262Z,17.10
2017-01-29T07:48:11.451Z,17.10
2017-01-29T07:49:12.064Z,17.10
2017-01-29T07:50:11.151Z,17.20
2017-01-29T07:51:11.672Z,17.20
2017-01-29T07:52:11.743Z,17.20
2017-01-29T07:53:13.551Z,17.20
2017-01-29T07:54:11.522Z,17.20
2017-01-29T07:55:12.145Z,17.20
2017-01-29T07:56:11.902Z,17.20
2017-01-29T07:57:12.019Z,17.20
2017-01-29T07:58:11.173Z,17.20
2017-01-29T07:59:12.194Z,17.20
2017-01-29T08:00:11.256Z,17.20
2017-01-29T08:01:11.859Z,17.20
2017-01-29T08:02:12.397Z,17.20
2017-01-29T08:03:11.441Z,17.20
2017-01-29T08:04:12.020Z,17.20
2017-01-29T08:05:11.701Z,17.20
2017-01-29T08:06:11.877Z,17.30
2017-01-29T08:07:11.903Z,17.30
2017-01-29T08:08:12.147Z,17.30
2017-01-29T08:09:12.950Z,17.30
2017-01-29T08:10:13.882Z,17.20
2017-01-29T08:11:11.945Z,17.30
2017-01-29T08:12:12.015Z,17.20
2017-01-29T08:13:11.840Z,17.30
2017-01-29T08:14:11.938Z,17.20
2017-01-29T08:15:13.770Z,17.20
2017-01-29T08:16:11.828Z,17.20
2017-01-29T08:17:12.876Z,17.20
2017-01-29T08:18:11.837Z,17.20
2017-01-29T08:19:11.894Z,17.20
2017-01-29T08:20:11.961Z,17.20
2017-01-29T08:21:12.828Z,17.20
2017-01-29T08:22:09.744Z,17.20
2017-01-29T08:23:12.708Z,17.20
2017-01-29T08:24:12.396Z,17.20
2017-01-29T08:25:12.160Z,17.30
2017-01-29T08:26:11.840Z,17.30
2017-01-29T08:27:12.485Z,17.30
2017-01-29T08:28:11.553Z,17.30
2017-01-29T08:29:12.214Z,17.30
2017-01-29T08:30:11.956Z,17.30
2017-01-29T08:31:12.137Z,17.30
2017-01-29T08:32:11.228Z,17.30
2017-01-29T08:33:12.961Z,17.20
2017-01-29T08:34:10.314Z,17.10
2017-01-29T08:35:13.965Z,17.00
2017-01-29T08:36:11.760Z,17.00
2017-01-29T08:37:12.666Z,17.00
2017-01-29T08:38:11.583Z,17.10
2017-01-29T08:39:10.258Z,17.10
2017-01-29T08:40:12.269Z,17.10
2017-01-29T08:41:13.095Z,17.10
2017-01-29T08:42:11.846Z,17.10
2017-01-29T08:43:12.857Z,17.20
2017-01-29T08:44:10.641Z,17.20
2017-01-29T08:45:12.057Z,17.20
2017-01-29T08:46:12.675Z,17.20
2017-01-29T08:47:12.339Z,16.10
2017-01-29T08:48:11.296Z,14.60
2017-01-29T08:49:11.967Z,13.40
2017-01-29T08:50:12.299Z,12.40
2017-01-29T08:51:12.044Z,11.80
2017-01-29T08:52:11.772Z,11.20
2017-01-29T08:53:09.221Z,11.50
2017-01-29T08:54:12.417Z,12.00
2017-01-29T08:55:11.469Z,12.60
2017-01-29T08:56:11.618Z,13.20
2017-01-29T08:57:12.367Z,13.80
2017-01-29T08:58:11.522Z,14.40
2017-01-29T08:59:11.597Z,14.80
2017-01-29T09:00:11.631Z,15.20
2017-01-29T09:01:11.709Z,15.60
2017-01-29T09:02:12.294Z,15.90
2017-01-29T09:03:12.409Z,16.10
2017-01-29T09:04:11.481Z,16.30
2017-01-29T09:05:12.323Z,16.50
2017-01-29T09:06:11.376Z,16.60
2017-01-29T09:07:11.779Z,16.70
2017-01-29T09:08:12.493Z,16.80
2017-01-29T09:09:11.735Z,16.90
2017-01-29T09:10:11.787Z,17.00
2017-01-29T09:11:12.350Z,17.10
2017-01-29T09:12:11.855Z,17.20
2017-01-29T09:13:11.994Z,17.30
2017-01-29T09:14:11.135Z,17.30
2017-01-29T09:15:11.893Z,17.40
2017-01-29T09:16:11.974Z,17.40
2017-01-29T09:17:12.567Z,17.50
2017-01-29T09:18:12.598Z,17.50
2017-01-29T09:19:12.001Z,17.50
2017-01-29T09:20:11.410Z,17.60
2017-01-29T09:21:11.569Z,17.60
2017-01-29T09:22:11.660Z,17.70
2017-01-29T09:23:13.133Z,17.70
2017-01-29T09:24:12.190Z,17.80
2017-01-29T09:25:11.413Z,17.80
2017-01-29T09:26:12.873Z,17.90
2017-01-29T09:27:10.639Z,17.80
2017-01-29T09:28:10.016Z,17.80
2017-01-29T09:29:10.215Z,17.70
2017-01-29T09:30:13.389Z,17.70
2017-01-29T09:31:11.748Z,17.60
2017-01-29T09:32:11.829Z,17.60
2017-01-29T09:33:11.834Z,17.60
2017-01-29T09:34:12.038Z,17.60
2017-01-29T09:35:11.324Z,17.60
2017-01-29T09:36:11.678Z,17.60
2017-01-29T09:37:12.289Z,17.60
2017-01-29T09:38:12.151Z,17.70
2017-01-29T09:39:12.655Z,17.70
2017-01-29T09:40:13.073Z,17.70
2017-01-29T09:41:11.172Z,17.70
2017-01-29T09:42:13.156Z,17.70
2017-01-29T09:43:11.209Z,17.70
2017-01-29T09:44:12.165Z,17.70
2017-01-29T09:45:11.179Z,17.60
2017-01-29T09:46:11.373Z,17.60
2017-01-29T09:47:11.461Z,17.50
2017-01-29T09:48:12.555Z,17.50
2017-01-29T09:49:12.429Z,17.50
2017-01-29T09:50:12.030Z,17.50
2017-01-29T09:51:12.298Z,17.50
2017-01-29T09:52:11.302Z,17.50
2017-01-29T09:53:11.339Z,17.50
2017-01-29T09:54:12.901Z,17.50
2017-01-29T09:55:11.526Z,17.60
2017-01-29T09:56:12.176Z,17.60
2017-01-29T09:57:13.013Z,17.50
2017-01-29T09:58:12.135Z,17.50
2017-01-29T09:59:09.663Z,17.50
2017-01-29T10:00:11.344Z,17.30
2017-01-29T10:01:11.427Z,16.30
2017-01-29T10:02:12.324Z,15.20
2017-01-29T10:03:11.901Z,14.20
2017-01-29T10:04:11.656Z,13.60
2017-01-29T10:05:13.375Z,13.50
2017-01-29T10:06:12.059Z,13.70
2017-01-29T10:07:11.236Z,14.00
2017-01-29T10:08:11.856Z,14.30
2017-01-29T10:09:11.859Z,14.60
2017-01-29T10:10:12.018Z,14.90
2017-01-29T10:11:11.672Z,15.30
2017-01-29T10:12:12.877Z,15.60
2017-01-29T10:13:11.827Z,15.80
2017-01-29T10:14:10.471Z,16.00
2017-01-29T10:15:13.848Z,16.10
2017-01-29T10:16:13.476Z,16.20
2017-01-29T10:17:12.615Z,16.30
2017-01-29T10:18:12.296Z,16.40
2017-01-29T10:19:13.155Z,16.50
2017-01-29T10:20:11.649Z,16.50
2017-01-29T10:21:11.751Z,16.50
2017-01-29T10:22:11.862Z,16.50
2017-01-29T10:23:13.122Z,16.60
2017-01-29T10:24:09.837Z,16.60
2017-01-29T10:25:12.998Z,16.70
2017-01-29T10:26:11.847Z,16.70
2017-01-29T10:27:11.990Z,16.70
2017-01-29T10:28:12.019Z,16.70
2017-01-29T10:29:11.663Z,16.70
2017-01-29T10:30:13.438Z,16.70
2017-01-29T10:31:12.308Z,16.80
2017-01-29T10:32:11.370Z,16.70
2017-01-29T10:33:11.413Z,16.70
2017-01-29T10:34:12.024Z,16.80
2017-01-29T10:35:11.106Z,16.80
2017-01-29T10:36:11.130Z,16.80
2017-01-29T10:37:11.224Z,16.80
2017-01-29T10:38:11.562Z,16.80
2017-01-29T10:39:17.317Z,16.80
2017-01-29T10:40:12.144Z,16.80
2017-01-29T10:41:11.173Z,16.80
2017-01-29T10:42:11.838Z,16.80
2017-01-29T10:43:11.834Z,16.80
2017-01-29T10:44:12.571Z,16.80
2017-01-29T10:45:12.242Z,16.80
2017-01-29T10:46:11.314Z,16.80
2017-01-29T10:47:12.376Z,16.80
2017-01-29T10:48:11.455Z,16.80
2017-01-29T10:49:14.239Z,16.80
2017-01-29T10:50:11.441Z,16.80
2017-01-29T10:51:12.369Z,16.80
2017-01-29T10:52:11.943Z,16.80
2017-01-29T10:53:13.691Z,16.90
2017-01-29T10:54:12.319Z,16.90
2017-01-29T10:55:11.467Z,16.90
2017-01-29T10:56:11.589Z,16.90
2017-01-29T10:57:12.410Z,16.90
2017-01-29T10:58:12.124Z,16.90
2017-01-29T10:59:11.296Z,16.90
2017-01-29T11:00:09.102Z,16.90
2017-01-29T11:01:13.267Z,16.90
2017-01-29T11:02:12.790Z,16.90
2017-01-29T11:03:11.636Z,16.90
2017-01-29T11:04:15.301Z,16.90
2017-01-29T11:05:11.575Z,16.90
2017-01-29T11:06:11.738Z,16.80
2017-01-29T11:07:13.963Z,16.80
2017-01-29T11:08:13.697Z,16.80
2017-01-29T11:09:11.710Z,16.80
2017-01-29T11:10:12.338Z,16.80
2017-01-29T11:11:09.214Z,16.90
2017-01-29T11:12:10.286Z,16.90
2017-01-29T11:13:11.747Z,16.90
2017-01-29T11:14:13.458Z,16.90
2017-01-29T11:15:11.499Z,16.90
2017-01-29T11:16:11.675Z,16.90
2017-01-29T11:17:11.842Z,16.90
2017-01-29T11:18:11.927Z,16.90
2017-01-29T11:19:12.760Z,16.90
2017-01-29T11:20:10.039Z,16.90
2017-01-29T11:21:11.652Z,16.90
2017-01-29T11:22:11.788Z,16.90
2017-01-29T11:23:11.760Z,16.90
2017-01-29T11:24:12.463Z,16.90
2017-01-29T11:25:11.541Z,16.90
2017-01-29T11:26:12.242Z,16.90
2017-01-29T11:27:09.471Z,16.90
2017-01-29T11:28:12.488Z,16.90
2017-01-29T11:29:11.648Z,16.90
2017-01-29T11:30:12.536Z,16.90
2017-01-29T11:31:12.170Z,16.90
2017-01-29T11:32:12.215Z,16.90
2017-01-29T11:33:11.358Z,16.90
2017-01-29T11:34:12.149Z,16.90
2017-01-29T11:35:11.561Z,16.90
2017-01-29T11:36:11.659Z,16.90
2017-01-29T11:37:12.512Z,16.90
2017-01-29T11:38:08.752Z,16.90
2017-01-29T11:39:11.725Z,16.90
2017-01-29T11:40:13.297Z,16.90
2017-01-29T11:41:11.271Z,16.90
2017-01-29T11:42:11.451Z,16.90
2017-01-29T11:43:11.410Z,16.90
2017-01-29T11:44:08.741Z,16.90
2017-01-29T11:45:12.014Z,16.90
2017-01-29T11:46:09.394Z,16.90
2017-01-29T11:47:10.063Z,16.90
2017-01-29T11:48:09.130Z,17.00
2017-01-29T11:49:14.212Z,17.00
2017-01-29T11:50:11.463Z,17.00
2017-01-29T11:51:12.015Z,17.00
2017-01-29T11:52:12.741Z,17.00
2017-01-29T11:53:11.788Z,17.00
2017-01-29T11:54:11.709Z,16.90
2017-01-29T11:55:11.815Z,16.90
2017-01-29T11:56:11.843Z,16.90
2017-01-29T11:57:12.794Z,16.90
2017-01-29T11:58:12.399Z,16.90
2017-01-29T11:59:13.653Z,16.90
2017-01-29T12:00:12.174Z,16.90
2017-01-29T12:01:11.337Z,16.90
2017-01-29T12:02:13.152Z,16.90
2017-01-29T12:03:11.763Z,16.90
2017-01-29T12:04:13.164Z,16.90
2017-01-29T12:05:11.220Z,16.90
2017-01-29T12:06:11.259Z,16.90
2017-01-29T12:07:13.092Z,16.90
2017-01-29T12:08:11.176Z,16.90
2017-01-29T12:09:12.575Z,16.90
2017-01-29T12:10:12.081Z,16.90
2017-01-29T12:11:11.161Z,16.90
2017-01-29T12:12:11.314Z,16.90
2017-01-29T12:13:11.390Z,16.90
2017-01-29T12:14:11.460Z,16.90
2017-01-29T12:15:11.507Z,16.90
2017-01-29T12:16:12.043Z,16.90
2017-01-29T12:17:11.591Z,16.90
2017-01-29T12:18:13.299Z,16.90
2017-01-29T12:19:11.375Z,16.90
2017-01-29T12:20:12.082Z,16.90
2017-01-29T12:21:13.053Z,16.90
2017-01-29T12:22:11.004Z,16.90
2017-01-29T12:23:12.593Z,16.90
2017-01-29T12:24:11.195Z,16.90
2017-01-29T12:25:11.848Z,16.90
2017-01-29T12:26:12.774Z,16.90
2017-01-29T12:27:11.916Z,16.90
2017-01-29T12:28:12.668Z,16.90
2017-01-29T12:29:12.479Z,16.90
2017-01-29T12:30:13.733Z,16.90
2017-01-29T12:31:12.404Z,16.90
2017-01-29T12:32:11.436Z,16.80
2017-01-29T12:33:12.677Z,16.90
2017-01-29T12:34:12.429Z,16.90
2017-01-29T12:35:11.525Z,16.80
2017-01-29T12:36:12.079Z,16.90
2017-01-29T12:37:12.076Z,16.90
2017-01-29T12:38:11.560Z,16.90
2017-01-29T12:39:12.067Z,16.80
2017-01-29T12:40:11.269Z,16.80
2017-01-29T12:41:11.902Z,16.80
2017-01-29T12:42:12.149Z,16.80
2017-01-29T12:43:11.726Z,16.80
2017-01-29T12:44:12.339Z,16.80
2017-01-29T12:45:11.318Z,16.70
2017-01-29T12:46:12.035Z,16.70
2017-01-29T12:47:10.986Z,16.70
2017-01-29T12:48:13.705Z,16.70
2017-01-29T12:49:12.290Z,16.70
2017-01-29T12:50:11.641Z,16.70
2017-01-29T12:51:11.695Z,16.70
2017-01-29T12:52:12.602Z,16.70